sensor_id;sensor_type;location;lat;lon;timestamp;P1;durP1;ratioP1;P2;durP2;ratioP2
49384;SDS011;36795;45.028;38.968;2022-11-25T00:01:26;28.87;;;11.15;;
49384;SDS011;36795;45.028;38.968;2022-11-25T00:04:14;26.02;;;10.50;;
49384;SDS011;36795;45.028;38.968;2022-11-25T00:06:59;27.30;;;10.57;;
49384;SDS011;36795;45.028;38.968;2022-11-25T00:09:47;28.05;;;11.43;;
49384;SDS011;36795;45.028;38.968;2022-11-25T00:12:32;26.15;;;10.38;;
49384;SDS011;36795;45.028;38.968;2022-11-25T00:15:20;29.23;;;10.93;;
49384;SDS011;36795;45.028;38.968;2022-11-25T00:18:06;28.27;;;10.57;;
49384;SDS011;36795;45.028;38.968;2022-11-25T00:20:52;27.87;;;11.05;;
49384;SDS011;36795;45.028;38.968;2022-11-25T00:23:38;27.80;;;10.70;;
49384;SDS011;36795;45.028;38.968;2022-11-25T00:26:25;28.98;;;11.43;;
49384;SDS011;36795;45.028;38.968;2022-11-25T00:29:13;27.37;;;10.05;;
49384;SDS011;36795;45.028;38.968;2022-11-25T00:32:00;27.02;;;10.27;;
49384;SDS011;36795;45.028;38.968;2022-11-25T00:34:46;27.52;;;10.60;;
49384;SDS011;36795;45.028;38.968;2022-11-25T00:37:33;25.98;;;10.23;;
49384;SDS011;36795;45.028;38.968;2022-11-25T00:40:22;28.52;;;10.82;;
49384;SDS011;36795;45.028;38.968;2022-11-25T00:43:08;27.42;;;10.55;;
49384;SDS011;36795;45.028;38.968;2022-11-25T00:46:13;26.20;;;9.85;;
49384;SDS011;36795;45.028;38.968;2022-11-25T00:48:59;25.90;;;10.40;;
49384;SDS011;36795;45.028;38.968;2022-11-25T00:51:45;27.00;;;10.40;;
49384;SDS011;36795;45.028;38.968;2022-11-25T00:54:31;27.40;;;9.48;;
49384;SDS011;36795;45.028;38.968;2022-11-25T00:57:18;29.10;;;10.00;;
49384;SDS011;36795;45.028;38.968;2022-11-25T01:00:06;24.77;;;9.90;;
49384;SDS011;36795;45.028;38.968;2022-11-25T01:02:54;26.62;;;10.13;;
49384;SDS011;36795;45.028;38.968;2022-11-25T01:05:41;25.80;;;10.00;;
49384;SDS011;36795;45.028;38.968;2022-11-25T01:08:30;30.17;;;10.45;;
49384;SDS011;36795;45.028;38.968;2022-11-25T01:11:18;26.60;;;10.18;;
49384;SDS011;36795;45.028;38.968;2022-11-25T01:14:06;26.80;;;9.52;;
49384;SDS011;36795;45.028;38.968;2022-11-25T01:16:53;26.52;;;10.43;;
49384;SDS011;36795;45.028;38.968;2022-11-25T01:19:39;27.02;;;10.43;;
49384;SDS011;36795;45.028;38.968;2022-11-25T01:22:26;24.70;;;10.15;;
49384;SDS011;36795;45.028;38.968;2022-11-25T01:25:12;26.80;;;10.50;;
49384;SDS011;36795;45.028;38.968;2022-11-25T01:27:58;27.77;;;9.95;;
49384;SDS011;36795;45.028;38.968;2022-11-25T01:30:44;27.10;;;10.05;;
49384;SDS011;36795;45.028;38.968;2022-11-25T01:33:31;25.88;;;9.50;;
49384;SDS011;36795;45.028;38.968;2022-11-25T01:36:18;27.87;;;10.57;;
49384;SDS011;36795;45.028;38.968;2022-11-25T01:39:04;31.73;;;10.75;;
49384;SDS011;36795;45.028;38.968;2022-11-25T01:41:50;31.05;;;11.27;;
49384;SDS011;36795;45.028;38.968;2022-11-25T01:44:37;25.37;;;9.68;;
49384;SDS011;36795;45.028;38.968;2022-11-25T01:47:26;28.12;;;10.68;;
49384;SDS011;36795;45.028;38.968;2022-11-25T01:50:12;28.62;;;10.43;;
49384;SDS011;36795;45.028;38.968;2022-11-25T01:53:04;27.70;;;11.38;;
49384;SDS011;36795;45.028;38.968;2022-11-25T01:55:57;29.63;;;10.55;;
49384;SDS011;36795;45.028;38.968;2022-11-25T01:58:45;26.40;;;9.43;;
49384;SDS011;36795;45.028;38.968;2022-11-25T02:01:34;26.33;;;9.85;;
49384;SDS011;36795;45.028;38.968;2022-11-25T02:04:21;25.12;;;10.18;;
49384;SDS011;36795;45.028;38.968;2022-11-25T02:07:14;26.20;;;9.05;;
49384;SDS011;36795;45.028;38.968;2022-11-25T02:10:06;30.00;;;10.75;;
49384;SDS011;36795;45.028;38.968;2022-11-25T02:12:55;25.30;;;9.60;;
49384;SDS011;36795;45.028;38.968;2022-11-25T02:15:43;24.58;;;9.40;;
49384;SDS011;36795;45.028;38.968;2022-11-25T02:18:29;27.35;;;10.15;;
49384;SDS011;36795;45.028;38.968;2022-11-25T02:21:17;26.98;;;9.68;;
49384;SDS011;36795;45.028;38.968;2022-11-25T02:24:17;27.45;;;10.07;;
49384;SDS011;36795;45.028;38.968;2022-11-25T02:27:05;28.05;;;10.23;;
49384;SDS011;36795;45.028;38.968;2022-11-25T02:29:52;27.92;;;10.88;;
49384;SDS011;36795;45.028;38.968;2022-11-25T02:32:45;28.08;;;9.93;;
49384;SDS011;36795;45.028;38.968;2022-11-25T02:35:33;28.05;;;10.20;;
49384;SDS011;36795;45.028;38.968;2022-11-25T02:38:36;26.35;;;10.27;;
49384;SDS011;36795;45.028;38.968;2022-11-25T02:41:29;26.83;;;10.35;;
49384;SDS011;36795;45.028;38.968;2022-11-25T02:44:23;25.65;;;9.43;;
49384;SDS011;36795;45.028;38.968;2022-11-25T02:47:08;27.85;;;10.38;;
49384;SDS011;36795;45.028;38.968;2022-11-25T02:49:55;29.48;;;10.73;;
49384;SDS011;36795;45.028;38.968;2022-11-25T02:52:41;26.15;;;9.80;;
49384;SDS011;36795;45.028;38.968;2022-11-25T02:55:29;26.62;;;9.82;;
49384;SDS011;36795;45.028;38.968;2022-11-25T02:58:15;26.02;;;9.52;;
49384;SDS011;36795;45.028;38.968;2022-11-25T03:01:02;27.17;;;9.77;;
49384;SDS011;36795;45.028;38.968;2022-11-25T03:03:48;26.37;;;9.68;;
49384;SDS011;36795;45.028;38.968;2022-11-25T03:06:35;27.40;;;10.10;;
49384;SDS011;36795;45.028;38.968;2022-11-25T03:09:21;27.55;;;9.88;;
49384;SDS011;36795;45.028;38.968;2022-11-25T03:12:08;24.55;;;9.38;;
49384;SDS011;36795;45.028;38.968;2022-11-25T03:15:07;25.45;;;9.85;;
49384;SDS011;36795;45.028;38.968;2022-11-25T03:17:54;29.50;;;9.88;;
49384;SDS011;36795;45.028;38.968;2022-11-25T03:20:40;24.85;;;9.13;;
49384;SDS011;36795;45.028;38.968;2022-11-25T03:23:26;32.50;;;10.55;;
49384;SDS011;36795;45.028;38.968;2022-11-25T03:26:12;26.65;;;9.50;;
49384;SDS011;36795;45.028;38.968;2022-11-25T03:29:02;27.25;;;9.73;;
49384;SDS011;36795;45.028;38.968;2022-11-25T03:31:48;24.25;;;9.27;;
49384;SDS011;36795;45.028;38.968;2022-11-25T03:34:35;26.52;;;9.57;;
49384;SDS011;36795;45.028;38.968;2022-11-25T03:37:21;30.40;;;10.35;;
49384;SDS011;36795;45.028;38.968;2022-11-25T03:40:08;27.33;;;9.50;;
49384;SDS011;36795;45.028;38.968;2022-11-25T03:42:57;25.20;;;9.80;;
49384;SDS011;36795;45.028;38.968;2022-11-25T03:45:47;25.10;;;9.55;;
49384;SDS011;36795;45.028;38.968;2022-11-25T03:48:34;28.27;;;9.85;;
49384;SDS011;36795;45.028;38.968;2022-11-25T03:51:21;28.62;;;11.90;;
49384;SDS011;36795;45.028;38.968;2022-11-25T03:54:06;37.78;;;15.52;;
49384;SDS011;36795;45.028;38.968;2022-11-25T03:56:56;24.58;;;9.25;;
49384;SDS011;36795;45.028;38.968;2022-11-25T03:59:42;26.70;;;8.95;;
49384;SDS011;36795;45.028;38.968;2022-11-25T04:02:31;28.48;;;9.50;;
49384;SDS011;36795;45.028;38.968;2022-11-25T04:05:18;29.33;;;9.65;;
49384;SDS011;36795;45.028;38.968;2022-11-25T04:08:04;31.00;;;10.18;;
49384;SDS011;36795;45.028;38.968;2022-11-25T04:10:51;33.78;;;10.15;;
49384;SDS011;36795;45.028;38.968;2022-11-25T04:13:39;25.95;;;10.13;;
49384;SDS011;36795;45.028;38.968;2022-11-25T04:16:25;25.55;;;10.02;;
49384;SDS011;36795;45.028;38.968;2022-11-25T04:19:11;26.70;;;10.35;;
49384;SDS011;36795;45.028;38.968;2022-11-25T04:21:58;28.42;;;11.18;;
49384;SDS011;36795;45.028;38.968;2022-11-25T04:24:45;23.38;;;9.38;;
49384;SDS011;36795;45.028;38.968;2022-11-25T04:27:32;29.30;;;9.90;;
49384;SDS011;36795;45.028;38.968;2022-11-25T04:30:18;29.00;;;10.30;;
49384;SDS011;36795;45.028;38.968;2022-11-25T04:33:06;26.73;;;10.30;;
49384;SDS011;36795;45.028;38.968;2022-11-25T04:35:52;26.70;;;10.13;;
49384;SDS011;36795;45.028;38.968;2022-11-25T04:38:39;26.73;;;11.00;;
49384;SDS011;36795;45.028;38.968;2022-11-25T04:41:25;27.62;;;10.60;;
49384;SDS011;36795;45.028;38.968;2022-11-25T04:44:12;30.88;;;12.30;;
49384;SDS011;36795;45.028;38.968;2022-11-25T04:46:58;33.08;;;11.32;;
49384;SDS011;36795;45.028;38.968;2022-11-25T04:49:45;32.45;;;12.15;;
49384;SDS011;36795;45.028;38.968;2022-11-25T04:52:31;33.65;;;13.05;;
49384;SDS011;36795;45.028;38.968;2022-11-25T04:55:18;34.00;;;13.05;;
49384;SDS011;36795;45.028;38.968;2022-11-25T04:58:04;30.48;;;12.40;;
49384;SDS011;36795;45.028;38.968;2022-11-25T05:00:51;31.10;;;12.13;;
49384;SDS011;36795;45.028;38.968;2022-11-25T05:03:37;34.25;;;13.25;;
49384;SDS011;36795;45.028;38.968;2022-11-25T05:06:25;34.17;;;12.73;;
49384;SDS011;36795;45.028;38.968;2022-11-25T05:09:11;31.67;;;13.70;;
49384;SDS011;36795;45.028;38.968;2022-11-25T05:11:58;30.83;;;12.75;;
49384;SDS011;36795;45.028;38.968;2022-11-25T05:14:45;29.70;;;12.90;;
49384;SDS011;36795;45.028;38.968;2022-11-25T05:17:31;37.53;;;13.35;;
49384;SDS011;36795;45.028;38.968;2022-11-25T05:20:17;35.05;;;12.60;;
49384;SDS011;36795;45.028;38.968;2022-11-25T05:23:04;35.17;;;13.32;;
49384;SDS011;36795;45.028;38.968;2022-11-25T05:25:50;30.67;;;12.55;;
49384;SDS011;36795;45.028;38.968;2022-11-25T05:28:38;31.50;;;13.52;;
49384;SDS011;36795;45.028;38.968;2022-11-25T05:31:24;35.83;;;13.85;;
49384;SDS011;36795;45.028;38.968;2022-11-25T05:34:11;37.67;;;13.30;;
49384;SDS011;36795;45.028;38.968;2022-11-25T05:36:57;34.05;;;13.82;;
49384;SDS011;36795;45.028;38.968;2022-11-25T05:39:44;36.15;;;13.77;;
49384;SDS011;36795;45.028;38.968;2022-11-25T05:42:33;38.90;;;14.00;;
49384;SDS011;36795;45.028;38.968;2022-11-25T05:45:21;32.88;;;12.95;;
49384;SDS011;36795;45.028;38.968;2022-11-25T05:48:07;37.17;;;14.18;;
49384;SDS011;36795;45.028;38.968;2022-11-25T05:50:54;62.30;;;15.45;;
49384;SDS011;36795;45.028;38.968;2022-11-25T05:53:44;50.63;;;14.70;;
49384;SDS011;36795;45.028;38.968;2022-11-25T05:56:30;48.08;;;14.90;;
49384;SDS011;36795;45.028;38.968;2022-11-25T05:59:17;37.13;;;14.32;;
49384;SDS011;36795;45.028;38.968;2022-11-25T06:02:09;32.85;;;14.18;;
49384;SDS011;36795;45.028;38.968;2022-11-25T06:04:56;36.28;;;12.73;;
49384;SDS011;36795;45.028;38.968;2022-11-25T06:07:42;48.97;;;14.32;;
49384;SDS011;36795;45.028;38.968;2022-11-25T06:10:28;29.33;;;10.98;;
49384;SDS011;36795;45.028;38.968;2022-11-25T06:13:14;27.85;;;10.65;;
49384;SDS011;36795;45.028;38.968;2022-11-25T06:16:05;26.08;;;10.13;;
49384;SDS011;36795;45.028;38.968;2022-11-25T06:18:54;30.67;;;10.63;;
49384;SDS011;36795;45.028;38.968;2022-11-25T06:21:42;32.00;;;11.75;;
49384;SDS011;36795;45.028;38.968;2022-11-25T06:24:27;30.75;;;10.13;;
49384;SDS011;36795;45.028;38.968;2022-11-25T06:27:15;33.83;;;11.43;;
49384;SDS011;36795;45.028;38.968;2022-11-25T06:30:02;31.77;;;12.30;;
49384;SDS011;36795;45.028;38.968;2022-11-25T06:32:49;28.92;;;10.57;;
49384;SDS011;36795;45.028;38.968;2022-11-25T06:35:35;33.83;;;11.00;;
49384;SDS011;36795;45.028;38.968;2022-11-25T06:38:24;33.33;;;11.23;;
49384;SDS011;36795;45.028;38.968;2022-11-25T06:41:10;30.62;;;10.43;;
49384;SDS011;36795;45.028;38.968;2022-11-25T06:43:57;31.30;;;10.77;;
49384;SDS011;36795;45.028;38.968;2022-11-25T06:46:43;27.60;;;10.15;;
49384;SDS011;36795;45.028;38.968;2022-11-25T06:49:29;29.20;;;10.48;;
49384;SDS011;36795;45.028;38.968;2022-11-25T06:52:15;41.10;;;10.98;;
49384;SDS011;36795;45.028;38.968;2022-11-25T06:55:02;44.08;;;11.85;;
49384;SDS011;36795;45.028;38.968;2022-11-25T06:57:48;32.22;;;10.88;;
49384;SDS011;36795;45.028;38.968;2022-11-25T07:00:34;32.22;;;11.30;;
49384;SDS011;36795;45.028;38.968;2022-11-25T07:03:20;31.85;;;11.40;;
49384;SDS011;36795;45.028;38.968;2022-11-25T07:06:07;29.98;;;9.77;;
49384;SDS011;36795;45.028;38.968;2022-11-25T07:08:54;32.13;;;10.82;;
49384;SDS011;36795;45.028;38.968;2022-11-25T07:11:41;34.50;;;9.73;;
49384;SDS011;36795;45.028;38.968;2022-11-25T07:14:27;42.67;;;10.57;;
49384;SDS011;36795;45.028;38.968;2022-11-25T07:17:13;36.80;;;10.70;;
49384;SDS011;36795;45.028;38.968;2022-11-25T07:19:59;30.50;;;10.70;;
49384;SDS011;36795;45.028;38.968;2022-11-25T07:22:46;29.83;;;10.98;;
49384;SDS011;36795;45.028;38.968;2022-11-25T07:25:34;31.60;;;9.35;;
49384;SDS011;36795;45.028;38.968;2022-11-25T07:28:21;32.35;;;10.73;;
49384;SDS011;36795;45.028;38.968;2022-11-25T07:31:10;27.83;;;11.07;;
49384;SDS011;36795;45.028;38.968;2022-11-25T07:34:02;35.33;;;11.85;;
49384;SDS011;36795;45.028;38.968;2022-11-25T07:36:53;30.52;;;10.50;;
49384;SDS011;36795;45.028;38.968;2022-11-25T07:39:40;30.67;;;10.73;;
49384;SDS011;36795;45.028;38.968;2022-11-25T07:42:25;34.00;;;10.77;;
49384;SDS011;36795;45.028;38.968;2022-11-25T07:45:11;31.42;;;10.95;;
49384;SDS011;36795;45.028;38.968;2022-11-25T07:47:59;33.33;;;13.18;;
49384;SDS011;36795;45.028;38.968;2022-11-25T07:50:47;23.85;;;8.07;;
49384;SDS011;36795;45.028;38.968;2022-11-25T07:53:33;26.77;;;8.90;;
49384;SDS011;36795;45.028;38.968;2022-11-25T07:56:20;29.00;;;8.35;;
49384;SDS011;36795;45.028;38.968;2022-11-25T07:59:07;21.10;;;8.10;;
49384;SDS011;36795;45.028;38.968;2022-11-25T08:01:59;26.12;;;8.30;;
49384;SDS011;36795;45.028;38.968;2022-11-25T08:04:46;24.60;;;8.77;;
49384;SDS011;36795;45.028;38.968;2022-11-25T08:07:31;26.60;;;9.00;;
49384;SDS011;36795;45.028;38.968;2022-11-25T08:10:18;25.23;;;9.10;;
49384;SDS011;36795;45.028;38.968;2022-11-25T08:13:03;26.17;;;8.13;;
49384;SDS011;36795;45.028;38.968;2022-11-25T08:15:50;26.33;;;8.65;;
49384;SDS011;36795;45.028;38.968;2022-11-25T08:18:36;27.92;;;9.23;;
49384;SDS011;36795;45.028;38.968;2022-11-25T08:21:22;26.15;;;10.77;;
49384;SDS011;36795;45.028;38.968;2022-11-25T08:24:12;21.92;;;7.68;;
49384;SDS011;36795;45.028;38.968;2022-11-25T08:27:01;37.88;;;20.90;;
49384;SDS011;36795;45.028;38.968;2022-11-25T08:29:47;27.58;;;10.48;;
49384;SDS011;36795;45.028;38.968;2022-11-25T08:32:37;25.73;;;10.27;;
49384;SDS011;36795;45.028;38.968;2022-11-25T08:35:23;28.35;;;9.25;;
49384;SDS011;36795;45.028;38.968;2022-11-25T08:38:10;28.83;;;9.10;;
49384;SDS011;36795;45.028;38.968;2022-11-25T08:40:56;24.95;;;9.32;;
49384;SDS011;36795;45.028;38.968;2022-11-25T08:43:43;26.55;;;9.82;;
49384;SDS011;36795;45.028;38.968;2022-11-25T08:46:30;24.37;;;8.88;;
49384;SDS011;36795;45.028;38.968;2022-11-25T08:49:20;26.33;;;10.02;;
49384;SDS011;36795;45.028;38.968;2022-11-25T08:52:06;26.40;;;9.95;;
49384;SDS011;36795;45.028;38.968;2022-11-25T08:54:54;27.90;;;9.75;;
49384;SDS011;36795;45.028;38.968;2022-11-25T08:57:40;27.85;;;9.77;;
49384;SDS011;36795;45.028;38.968;2022-11-25T09:00:26;24.27;;;8.80;;
49384;SDS011;36795;45.028;38.968;2022-11-25T09:03:11;26.30;;;9.50;;
49384;SDS011;36795;45.028;38.968;2022-11-25T09:05:58;39.17;;;16.30;;
49384;SDS011;36795;45.028;38.968;2022-11-25T09:08:44;28.67;;;10.73;;
49384;SDS011;36795;45.028;38.968;2022-11-25T09:11:34;26.85;;;9.02;;
49384;SDS011;36795;45.028;38.968;2022-11-25T09:14:20;26.40;;;8.40;;
49384;SDS011;36795;45.028;38.968;2022-11-25T09:17:10;27.10;;;9.63;;
49384;SDS011;36795;45.028;38.968;2022-11-25T09:19:56;28.38;;;9.52;;
49384;SDS011;36795;45.028;38.968;2022-11-25T09:22:42;24.37;;;8.75;;
49384;SDS011;36795;45.028;38.968;2022-11-25T09:25:28;25.33;;;9.27;;
49384;SDS011;36795;45.028;38.968;2022-11-25T09:28:14;28.92;;;10.65;;
49384;SDS011;36795;45.028;38.968;2022-11-25T09:31:07;25.17;;;9.20;;
49384;SDS011;36795;45.028;38.968;2022-11-25T09:33:54;25.83;;;9.07;;
49384;SDS011;36795;45.028;38.968;2022-11-25T09:36:42;25.95;;;9.18;;
49384;SDS011;36795;45.028;38.968;2022-11-25T09:39:28;26.42;;;10.30;;
49384;SDS011;36795;45.028;38.968;2022-11-25T09:42:20;27.95;;;9.98;;
49384;SDS011;36795;45.028;38.968;2022-11-25T09:45:45;31.77;;;13.13;;
49384;SDS011;36795;45.028;38.968;2022-11-25T09:52:24;25.65;;;9.25;;
49384;SDS011;36795;45.028;38.968;2022-11-25T09:55:22;26.95;;;10.02;;
49384;SDS011;36795;45.028;38.968;2022-11-25T10:04:09;26.67;;;8.68;;
49384;SDS011;36795;45.028;38.968;2022-11-25T10:07:02;22.45;;;8.88;;
49384;SDS011;36795;45.028;38.968;2022-11-25T10:09:54;24.17;;;9.90;;
49384;SDS011;36795;45.028;38.968;2022-11-25T10:12:43;23.73;;;9.05;;
49384;SDS011;36795;45.028;38.968;2022-11-25T10:15:33;23.58;;;8.10;;
49384;SDS011;36795;45.028;38.968;2022-11-25T10:18:25;24.40;;;8.93;;
49384;SDS011;36795;45.028;38.968;2022-11-25T10:21:22;26.15;;;8.90;;
49384;SDS011;36795;45.028;38.968;2022-11-25T10:24:12;25.40;;;9.32;;
49384;SDS011;36795;45.028;38.968;2022-11-25T10:27:00;24.73;;;8.98;;
49384;SDS011;36795;45.028;38.968;2022-11-25T10:29:58;25.25;;;9.60;;
49384;SDS011;36795;45.028;38.968;2022-11-25T10:32:51;28.15;;;9.68;;
49384;SDS011;36795;45.028;38.968;2022-11-25T10:44:44;23.58;;;9.20;;
49384;SDS011;36795;45.028;38.968;2022-11-25T10:47:43;26.87;;;11.65;;
49384;SDS011;36795;45.028;38.968;2022-11-25T10:50:54;28.92;;;9.40;;
49384;SDS011;36795;45.028;38.968;2022-11-25T10:53:42;26.05;;;9.02;;
49384;SDS011;36795;45.028;38.968;2022-11-25T10:57:17;23.75;;;9.35;;
49384;SDS011;36795;45.028;38.968;2022-11-25T11:00:05;24.05;;;9.77;;
49384;SDS011;36795;45.028;38.968;2022-11-25T11:02:53;27.42;;;10.68;;
49384;SDS011;36795;45.028;38.968;2022-11-25T11:05:48;25.77;;;10.35;;
49384;SDS011;36795;45.028;38.968;2022-11-25T11:08:38;24.58;;;9.05;;
49384;SDS011;36795;45.028;38.968;2022-11-25T11:11:24;25.25;;;8.40;;
49384;SDS011;36795;45.028;38.968;2022-11-25T11:14:16;25.48;;;10.00;;
49384;SDS011;36795;45.028;38.968;2022-11-25T11:17:14;28.60;;;10.40;;
49384;SDS011;36795;45.028;38.968;2022-11-25T11:20:35;29.23;;;9.85;;
49384;SDS011;36795;45.028;38.968;2022-11-25T11:23:21;24.77;;;8.30;;
49384;SDS011;36795;45.028;38.968;2022-11-25T11:26:09;26.55;;;9.35;;
49384;SDS011;36795;45.028;38.968;2022-11-25T11:29:13;26.52;;;9.45;;
49384;SDS011;36795;45.028;38.968;2022-11-25T11:32:02;25.65;;;9.73;;
49384;SDS011;36795;45.028;38.968;2022-11-25T11:34:56;24.95;;;9.55;;
49384;SDS011;36795;45.028;38.968;2022-11-25T11:41:18;25.88;;;10.18;;
49384;SDS011;36795;45.028;38.968;2022-11-25T11:44:33;25.23;;;9.77;;
49384;SDS011;36795;45.028;38.968;2022-11-25T12:05:39;26.08;;;9.80;;
49384;SDS011;36795;45.028;38.968;2022-11-25T12:11:35;24.50;;;10.75;;
49384;SDS011;36795;45.028;38.968;2022-11-25T12:14:35;26.67;;;12.00;;
49384;SDS011;36795;45.028;38.968;2022-11-25T12:17:31;31.90;;;12.93;;
49384;SDS011;36795;45.028;38.968;2022-11-25T12:26:56;31.48;;;13.25;;
49384;SDS011;36795;45.028;38.968;2022-11-25T12:29:48;31.08;;;13.68;;
49384;SDS011;36795;45.028;38.968;2022-11-25T12:36:38;31.73;;;11.98;;
49384;SDS011;36795;45.028;38.968;2022-11-25T12:39:27;29.20;;;13.07;;
49384;SDS011;36795;45.028;38.968;2022-11-25T12:42:22;29.90;;;12.07;;
49384;SDS011;36795;45.028;38.968;2022-11-25T12:45:11;31.48;;;12.73;;
49384;SDS011;36795;45.028;38.968;2022-11-25T12:48:07;29.20;;;12.90;;
49384;SDS011;36795;45.028;38.968;2022-11-25T13:00:51;42.35;;;20.15;;
49384;SDS011;36795;45.028;38.968;2022-11-25T13:16:00;40.65;;;19.40;;
49384;SDS011;36795;45.028;38.968;2022-11-25T13:18:50;42.08;;;22.77;;
49384;SDS011;36795;45.028;38.968;2022-11-25T13:21:36;47.90;;;24.05;;
49384;SDS011;36795;45.028;38.968;2022-11-25T13:24:43;44.45;;;23.45;;
49384;SDS011;36795;45.028;38.968;2022-11-25T13:27:54;61.05;;;28.33;;
49384;SDS011;36795;45.028;38.968;2022-11-25T13:30:38;55.05;;;31.60;;
49384;SDS011;36795;45.028;38.968;2022-11-25T13:36:18;55.15;;;28.02;;
49384;SDS011;36795;45.028;38.968;2022-11-25T13:39:10;53.42;;;27.85;;
49384;SDS011;36795;45.028;38.968;2022-11-25T13:44:48;56.80;;;30.95;;
49384;SDS011;36795;45.028;38.968;2022-11-25T13:47:46;60.22;;;30.95;;
49384;SDS011;36795;45.028;38.968;2022-11-25T13:50:33;63.45;;;31.33;;
49384;SDS011;36795;45.028;38.968;2022-11-25T13:53:25;60.22;;;30.75;;
49384;SDS011;36795;45.028;38.968;2022-11-25T13:56:28;63.25;;;31.85;;
49384;SDS011;36795;45.028;38.968;2022-11-25T13:59:35;64.78;;;34.58;;
49384;SDS011;36795;45.028;38.968;2022-11-25T14:02:34;68.32;;;34.80;;
49384;SDS011;36795;45.028;38.968;2022-11-25T14:08:43;72.20;;;38.50;;
49384;SDS011;36795;45.028;38.968;2022-11-25T14:14:59;75.70;;;41.05;;
49384;SDS011;36795;45.028;38.968;2022-11-25T14:20:57;101.50;;;46.63;;
49384;SDS011;36795;45.028;38.968;2022-11-25T14:27:01;101.97;;;50.08;;
49384;SDS011;36795;45.028;38.968;2022-11-25T14:29:53;97.05;;;51.92;;
49384;SDS011;36795;45.028;38.968;2022-11-25T14:32:48;103.55;;;54.80;;
49384;SDS011;36795;45.028;38.968;2022-11-25T14:35:47;105.05;;;56.50;;
49384;SDS011;36795;45.028;38.968;2022-11-25T14:38:39;119.72;;;58.95;;
49384;SDS011;36795;45.028;38.968;2022-11-25T14:44:44;112.00;;;61.37;;
49384;SDS011;36795;45.028;38.968;2022-11-25T14:47:35;119.93;;;64.95;;
49384;SDS011;36795;45.028;38.968;2022-11-25T14:50:21;122.45;;;64.62;;
49384;SDS011;36795;45.028;38.968;2022-11-25T14:53:09;133.32;;;75.28;;
49384;SDS011;36795;45.028;38.968;2022-11-25T14:55:58;136.65;;;77.07;;
49384;SDS011;36795;45.028;38.968;2022-11-25T14:58:47;149.55;;;76.85;;
49384;SDS011;36795;45.028;38.968;2022-11-25T15:01:35;149.80;;;78.15;;
49384;SDS011;36795;45.028;38.968;2022-11-25T15:04:23;158.30;;;86.22;;
49384;SDS011;36795;45.028;38.968;2022-11-25T15:07:17;149.48;;;84.25;;
49384;SDS011;36795;45.028;38.968;2022-11-25T15:10:27;140.07;;;81.68;;
49384;SDS011;36795;45.028;38.968;2022-11-25T15:13:23;134.52;;;72.25;;
49384;SDS011;36795;45.028;38.968;2022-11-25T15:16:21;110.55;;;59.95;;
49384;SDS011;36795;45.028;38.968;2022-11-25T15:19:16;83.60;;;47.60;;
49384;SDS011;36795;45.028;38.968;2022-11-25T15:22:05;81.07;;;39.65;;
49384;SDS011;36795;45.028;38.968;2022-11-25T15:24:51;65.68;;;32.78;;
49384;SDS011;36795;45.028;38.968;2022-11-25T15:27:50;51.53;;;27.70;;
49384;SDS011;36795;45.028;38.968;2022-11-25T15:30:37;53.55;;;27.58;;
49384;SDS011;36795;45.028;38.968;2022-11-25T15:33:23;51.85;;;27.70;;
49384;SDS011;36795;45.028;38.968;2022-11-25T15:36:10;52.35;;;25.40;;
49384;SDS011;36795;45.028;38.968;2022-11-25T15:44:53;40.97;;;20.90;;
49384;SDS011;36795;45.028;38.968;2022-11-25T15:47:43;44.92;;;22.90;;
49384;SDS011;36795;45.028;38.968;2022-11-25T15:50:29;41.40;;;21.33;;
49384;SDS011;36795;45.028;38.968;2022-11-25T15:53:22;40.35;;;20.45;;
49384;SDS011;36795;45.028;38.968;2022-11-25T15:56:12;44.70;;;22.30;;
49384;SDS011;36795;45.028;38.968;2022-11-25T15:59:04;45.90;;;20.62;;
49384;SDS011;36795;45.028;38.968;2022-11-25T16:02:27;43.92;;;21.60;;
49384;SDS011;36795;45.028;38.968;2022-11-25T16:05:30;46.67;;;22.20;;
49384;SDS011;36795;45.028;38.968;2022-11-25T16:11:15;43.28;;;24.08;;
49384;SDS011;36795;45.028;38.968;2022-11-25T16:14:18;42.60;;;21.48;;
49384;SDS011;36795;45.028;38.968;2022-11-25T16:17:10;46.83;;;22.55;;
49384;SDS011;36795;45.028;38.968;2022-11-25T16:19:56;39.22;;;20.05;;
49384;SDS011;36795;45.028;38.968;2022-11-25T16:22:43;45.08;;;21.48;;
49384;SDS011;36795;45.028;38.968;2022-11-25T16:25:29;47.58;;;23.52;;
49384;SDS011;36795;45.028;38.968;2022-11-25T16:28:20;42.00;;;21.20;;
49384;SDS011;36795;45.028;38.968;2022-11-25T16:31:09;47.62;;;25.05;;
49384;SDS011;36795;45.028;38.968;2022-11-25T16:34:19;48.28;;;23.38;;
49384;SDS011;36795;45.028;38.968;2022-11-25T16:39:54;47.42;;;22.83;;
49384;SDS011;36795;45.028;38.968;2022-11-25T16:42:40;41.90;;;20.90;;
49384;SDS011;36795;45.028;38.968;2022-11-25T16:45:31;44.22;;;20.65;;
49384;SDS011;36795;45.028;38.968;2022-11-25T16:48:18;44.13;;;22.83;;
49384;SDS011;36795;45.028;38.968;2022-11-25T16:51:26;40.80;;;20.00;;
49384;SDS011;36795;45.028;38.968;2022-11-25T16:54:12;44.27;;;21.37;;
49384;SDS011;36795;45.028;38.968;2022-11-25T16:56:58;51.15;;;28.73;;
49384;SDS011;36795;45.028;38.968;2022-11-25T16:59:44;57.53;;;31.55;;
49384;SDS011;36795;45.028;38.968;2022-11-25T17:02:34;48.35;;;25.65;;
49384;SDS011;36795;45.028;38.968;2022-11-25T17:05:21;43.33;;;23.50;;
49384;SDS011;36795;45.028;38.968;2022-11-25T17:08:08;48.00;;;25.23;;
49384;SDS011;36795;45.028;38.968;2022-11-25T17:10:54;41.45;;;21.62;;
49384;SDS011;36795;45.028;38.968;2022-11-25T17:13:45;41.67;;;20.55;;
49384;SDS011;36795;45.028;38.968;2022-11-25T17:16:34;47.40;;;20.83;;
49384;SDS011;36795;45.028;38.968;2022-11-25T17:19:21;41.88;;;20.73;;
49384;SDS011;36795;45.028;38.968;2022-11-25T17:22:18;39.58;;;20.40;;
49384;SDS011;36795;45.028;38.968;2022-11-25T17:25:08;49.28;;;27.10;;
49384;SDS011;36795;45.028;38.968;2022-11-25T17:27:56;40.92;;;20.20;;
49384;SDS011;36795;45.028;38.968;2022-11-25T17:30:45;40.63;;;19.12;;
49384;SDS011;36795;45.028;38.968;2022-11-25T17:33:31;39.40;;;18.87;;
49384;SDS011;36795;45.028;38.968;2022-11-25T17:36:19;41.25;;;20.20;;
49384;SDS011;36795;45.028;38.968;2022-11-25T17:39:07;42.30;;;21.27;;
49384;SDS011;36795;45.028;38.968;2022-11-25T17:41:54;45.53;;;19.83;;
49384;SDS011;36795;45.028;38.968;2022-11-25T17:44:40;39.83;;;18.62;;
49384;SDS011;36795;45.028;38.968;2022-11-25T17:47:29;37.20;;;18.70;;
49384;SDS011;36795;45.028;38.968;2022-11-25T17:50:21;41.28;;;20.33;;
49384;SDS011;36795;45.028;38.968;2022-11-25T17:53:12;39.67;;;19.67;;
49384;SDS011;36795;45.028;38.968;2022-11-25T17:55:57;37.30;;;19.40;;
49384;SDS011;36795;45.028;38.968;2022-11-25T17:58:44;40.10;;;19.83;;
49384;SDS011;36795;45.028;38.968;2022-11-25T18:01:30;44.65;;;19.87;;
49384;SDS011;36795;45.028;38.968;2022-11-25T18:04:50;42.70;;;21.73;;
49384;SDS011;36795;45.028;38.968;2022-11-25T18:07:29;41.37;;;20.23;;
49384;SDS011;36795;45.028;38.968;2022-11-25T18:10:16;40.88;;;20.88;;